Bethlehem, PA

3:12 PM EDT on May 22, 2015 (GMT -0400)
Allentown | | Change Station
CLOSE
Current Station
Airport
Location: Allentown,
Elevation: 400 ft
Nearby Weather Stations

Elev 400 ft 40.57 °N, 75.49 °W | Updated 17 minutes ago

Partly Cloudy
Partly Cloudy
70 °F
Feels Like 70 °F
N
13
Wind Variable Wind from WNW
Gusts 24 mph

Today
High -- | Low -- °F
--% Chance of Precip.
Yesterday
High -- | Low -- °F
Precip. -- in
5:39 AM 8:17 PM
Waxing Crescent, 23% visible
Pressure 29.99 in
Visibility 10.0 miles
Clouds Mostly Cloudy 7500 ft
Mostly Cloudy 9000 ft
Mostly Cloudy 12000 ft
Dew Point 39 °F
Humidity 33%
Rainfall 0.00 in
Snow Depth Not available.
UV 5 out of 12
Pollen 8.80 out of 12
Air Quality Not available.
Flu Activity Sporadic
METAR KXLL 221855Z AUTO 29011G21KT 10SM BKN075 BKN090 BKN120 21/04 A2999 RMK AO2

More Conditions Fewer Conditions

Pressure 29.99 in
Visibility 10.0 miles
Clouds Mostly Cloudy 7500 ft
Mostly Cloudy 9000 ft
Mostly Cloudy 12000 ft
Dew Point 39 °F
Humidity 33%
Rainfall 0.00 in
Snow Depth Not available.
UV 5 out of 12
Pollen 8.80 out of 12
Air Quality Not available.
Flu Activity Sporadic
METAR KXLL 221855Z AUTO 29011G21KT 10SM BKN075 BKN090 BKN120 21/04 A2999 RMK AO2

More Conditions Fewer Conditions

Nowcast | as of 1:52 PM EDT on May 22, 2015

Rain showers will be moving through from northwest to southeast during the mid-afternoon hours. Areas that experience precipitation will receive generally less than one-tenth of an inch of rain...but a few spots could see up to one-quarter inch in heavier showers. A rumble or two of thunder is also possible.

×

10-Day Weather Forecast

Almanac

Astronomy

May. 22, 2015 Rise Set
Actual Time
Civil Twilight
Nautical Twilight
Astronomical Twilight
Moon
Length of Visible Light
Length of Day
Tomorrow will be .
, % of the Moon is Illuminated

Today's Extremes

State Highs State Lows

Community

WunderPhotos

Upload Photos

1,823,279 photos uploaded!

WunderBlogs® & News

Nearby

Air Quality

  Air Quality AQ Index Pollutant
Not available.

Snow Depth

Station Depth Elevation

Earthquake Activity

City Distance Mag. Time & Date
Minimum magnitude displayed is 2.5.

Coastal Water Temperatures

Place Temperature

Stations

Nearby Weather Stations

Station Location Temp. Windchill Dew Point Humidity Wind Precip. Elev Updated Type